• Join FlightAware (Why Join?)
  • Login
  • US Flag 
12:53AM EDT


 

Airport Tracker/Info


-or-


 

Live Flight TrackerFlight Track Log ✈ AWE3327 ✈ 27-Apr-2013 ✈ KDCA - KSRQ

Flight Track Log - Related Links

Times and Time Zones

All times are in EDT time to prevent confusion due to time zone crossing. See the AWE3327 flight status page for this flight to view local times or setup timezone preferences in your user account.

Time Position Orientation Groundspeed Altitude Reporting Facility
EDT Latitude Longitude Course Direction KTS MPH feet Rate Location/Type
09:02AM 38.8833 -77.0667 233° Southwest 172 198 1,500  Level Potomac TRACON
09:04AM 38.6206 -77.2961 218° Southwest  Level FlightAware Approximate
09:04AM 38.9800 -77.1831 317° Northwest 239 275 7,200  Level Washington Center
09:05AM 38.5374 -77.3792 218° Southwest  Level FlightAware Approximate
09:05AM 38.9436 -77.2597 239° Southwest 198 228 10,100  Level Washington Center
09:06AM 38.4627 -77.4742 225° Southwest  Level FlightAware Approximate
09:06AM 38.8617 -77.3031 202° Southwest 234 269 12,300  Level Washington Center
09:07AM 38.3807 -77.5545 233° Southwest  Level FlightAware Approximate
09:07AM 38.7775 -77.3544 205° Southwest 286 329 15,100  Level Washington Center
09:08AM 38.6914 -77.4031 204° Southwest 327 376 17,400 1,920 Climbing Washington Center
09:09AM 38.5967 -77.4539 203° Southwest 355 409 19,000 1,620 Climbing Washington Center
09:10AM 38.5042 -77.5072 204° Southwest 366 421 20,700 1,200 Climbing Washington Center
09:11AM 38.4239 -77.5661 210° Southwest 366 421 21,500 1,380 Climbing Washington Center
09:12AM 38.3475 -77.6489 220° Southwest 366 421 23,500 1,800 Climbing Washington Center
09:13AM 38.2647 -77.7364 220° Southwest 372 428 25,100 1,500 Climbing Washington Center
09:14AM 38.1858 -77.8214 220° Southwest 386 444 26,500 960 Climbing Washington Center
09:15AM 38.0986 -77.9111 219° Southwest 392 451 27,100 1,080 Climbing Washington Center
09:16AM 38.0072 -78.0058 219° Southwest 392 451 28,700 1,440 Climbing Washington Center
09:17AM 37.9219 -78.0925 219° Southwest 392 451 30,000 1,140 Climbing Washington Center
09:18AM 37.8367 -78.1792 219° Southwest 392 451 31,100 840 Climbing Washington Center
09:19AM 37.7661 -78.2581 221° Southwest 387 445 31,700 900 Climbing Washington Center
09:20AM 37.6722 -78.3544 219° Southwest 392 451 33,000 720 Climbing Washington Center
09:21AM 37.5889 -78.4381 218° Southwest 387 445 33,200 420 Climbing Washington Center
09:22AM 37.5056 -78.5239 219° Southwest 387 445 33,900 360 Climbing Washington Center
09:23AM 37.4200 -78.6094 218° Southwest 387 445 34,000  Climbing Washington Center
09:24AM 37.3386 -78.6925 219° Southwest 387 445 34,000  Level Washington Center
09:25AM 37.2636 -78.7678 219° Southwest 387 445 34,000  Level Washington Center
09:26AM 37.1819 -78.8506 219° Southwest 387 445 34,000  Level Washington Center
09:27AM 37.0983 -78.9353 219° Southwest 387 445 34,000  Level Washington Center
09:28AM 37.0125 -79.0175 217° Southwest 387 445 34,000  Level Washington Center
09:29AM 36.9308 -79.1022 220° Southwest 387 445 34,000  Level Washington Center
09:30AM 36.8406 -79.1942 219° Southwest 387 445 34,000  Level Washington Center
09:31AM 36.7544 -79.2783 218° Southwest 387 445 34,000  Level Washington Center
09:34AM 36.5614 -79.4692 218° Southwest 380 437 34,000  Level Atlanta Center
09:35AM 36.4789 -79.5514 219° Southwest 380 437 34,000  Level Atlanta Center
09:36AM 36.3942 -79.6308 217° Southwest 380 437 34,000  Level Atlanta Center
09:37AM 36.3056 -79.7233 220° Southwest 380 437 34,000  Level Atlanta Center
09:38AM 36.2208 -79.8025 217° Southwest 385 443 34,000  Level Atlanta Center
09:39AM 36.1358 -79.8814 217° Southwest 385 443 34,000  Level Atlanta Center
09:40AM 36.0531 -79.9628 218° Southwest 385 443 34,000  Level Atlanta Center
09:41AM 35.9550 -80.0217 206° Southwest 391 450 34,000  Level Atlanta Center
09:42AM 35.8606 -80.0672 201° Southwest 396 456 34,000  Level Atlanta Center
09:43AM 35.7600 -80.1158 201° Southwest 396 456 34,000  Level Atlanta Center
09:44AM 35.6372 -80.1292 185° South 420 483 34,000  Level Atlanta Center
09:45AM 35.5189 -80.0864 164° South 431 496 34,000  Level Atlanta Center
09:46AM 35.4019 -80.0792 177° South 436 502 34,000  Level Atlanta Center
09:47AM 35.2992 -80.1300 202° Southwest 412 474 34,000  Level Atlanta Center
09:49AM 35.0775 -80.2750 208° Southwest 397 457 34,000  Level Jacksonville Center
09:50AM 34.9831 -80.3386 209° Southwest 397 457 34,000  Level Jacksonville Center
09:51AM 34.8819 -80.4025 207° Southwest 406 467 34,000  Level Jacksonville Center
09:52AM 34.7914 -80.4633 209° Southwest 398 458 34,000  Level Jacksonville Center
09:53AM 34.6944 -80.5242 207° Southwest 393 452 34,000  Level Jacksonville Center
09:54AM 34.5978 -80.5872 208° Southwest 387 445 34,000  Level Jacksonville Center
09:55AM 34.4944 -80.6403 203° Southwest 393 452 34,000  Level Jacksonville Center
09:56AM 34.3950 -80.6858 201° Southwest 393 452 34,000  Level Jacksonville Center
09:57AM 34.2958 -80.7411 205° Southwest 414 476 34,000  Level Jacksonville Center
09:58AM 34.1903 -80.7914 202° Southwest 390 449 34,000  Level Jacksonville Center
09:59AM 34.0889 -80.8414 202° Southwest 390 449 34,000  Level Jacksonville Center
10:00AM 33.9897 -80.8939 204° Southwest 390 449 34,000  Level Jacksonville Center
10:01AM 33.8881 -80.9436 202° Southwest 390 449 34,000  Level Jacksonville Center
10:02AM 33.7928 -80.9908 202° Southwest 397 457 34,000  Level Jacksonville Center
10:03AM 33.6933 -81.0403 202° Southwest 397 457 34,000  Level Jacksonville Center
10:04AM 33.5897 -81.0900 202° Southwest 397 457 34,000  Level Jacksonville Center
10:05AM 33.4883 -81.1417 203° Southwest 391 450 34,000  Level Jacksonville Center
10:06AM 33.3867 -81.1911 202° Southwest 391 450 34,000  Level Jacksonville Center
10:07AM 33.2831 -81.2428 203° Southwest 391 450 34,000  Level Jacksonville Center
10:08AM 33.1772 -81.2919 201° Southwest 391 450 34,000  Level Jacksonville Center
10:09AM 33.0775 -81.3408 202° Southwest 391 450 34,000  Level Jacksonville Center
10:10AM 32.9739 -81.3894 201° Southwest 391 450 34,000  Level Jacksonville Center
10:11AM 32.8636 -81.4236 195° South 398 458 34,000  Level Jacksonville Center
10:12AM 32.7533 -81.4550 193° South 403 464 34,000  Level Jacksonville Center
10:13AM 32.6328 -81.4914 194° South 403 464 34,000  Level Jacksonville Center
10:14AM 32.5347 -81.5175 193° South 409 471 34,000  Level Jacksonville Center
10:15AM 32.4119 -81.5514 193° South 414 476 34,000  Level Jacksonville Center
10:16AM 32.2997 -81.5825 193° South 413 475 34,000  Level Jacksonville Center
10:17AM 32.1975 -81.6086 192° South 413 475 34,000  Level Jacksonville Center
10:18AM 32.0747 -81.6422 193° South 405 466 34,000  Level Jacksonville Center
10:19AM 31.9769 -81.6681 193° South 410 472 34,000  Level Jacksonville Center
10:20AM 31.8519 -81.7014 193° South 417 480 34,000  Level Jacksonville Center
10:21AM 31.7394 -81.7322 193° South 419 482 34,000  Level Jacksonville Center
10:22AM 31.6353 -81.7603 193° South 419 482 34,000  Level Jacksonville Center
10:23AM 31.5103 -81.7936 193° South 419 482 34,000  Level Jacksonville Center
10:24AM 31.4042 -81.8217 193° South 432 497 34,000  Level Jacksonville Center
10:25AM 31.2792 -81.8569 194° South 439 505 34,000  Level Jacksonville Center
10:26AM 31.1583 -81.8900 193° South 451 519 34,000  Level Jacksonville Center
10:27AM 31.0353 -81.9228 193° South 451 519 34,000  Level Jacksonville Center
10:28AM 30.9125 -81.9556 193° South 451 519 34,000  Level Jacksonville Center
10:29AM 30.7894 -81.9881 193° South 451 519 34,000  Level Jacksonville Center
10:30AM 30.6644 -82.0208 193° South 451 519 34,000  Level Jacksonville Center
10:31AM 30.5414 -82.0483 191° South 451 519 34,000  Level Jacksonville Center
10:32AM 30.4183 -82.0808 193° South 451 519 34,000  Level Jacksonville Center
10:33AM 30.2956 -82.1156 194° South 451 519 34,000  Level Jacksonville Center
10:34AM 30.1683 -82.1381 189° South 451 519 34,000  Level Jacksonville Center
10:35AM 30.0367 -82.1367 179° South 458 527 34,000 -300 Level Jacksonville Center
10:36AM 29.8906 -82.1403 181° South 472 543 33,400 -1,380 Descending Jacksonville Center
10:37AM 29.7589 -82.1342 178° South 472 543 31,300 -2,040 Descending Jacksonville Center
10:38AM 29.6442 -82.1303 178° South 477 549 29,400 -2,040 Descending Jacksonville Center
10:39AM 29.5147 -82.1264 179° South 477 549 27,300 -2,160 Descending Jacksonville Center
10:40AM 29.3894 -82.1275 180° South 465 535 25,100 -2,160 Descending Jacksonville Center
10:41AM 29.2683 -82.1261 179° South 454 522 23,000 -2,100 Descending Jacksonville Center
10:42AM 29.1494 -82.1247 179° South 437 503 21,000 -2,040 Descending Jacksonville Center
10:43AM 29.0347 -82.1231 179° South 431 496 19,000 -1,860 Descending Jacksonville Center
10:44AM 28.9136 -82.1194 179° South 421 484 17,300 -1,740 Descending Jacksonville Center
10:46AM 28.7000 -82.1167 179° South 374 430 13,700 -1,440 Descending Tampa TRACON
10:47AM 28.5833 -82.1000 173° South 366 421 13,000 -840 Descending Tampa TRACON
10:48AM 28.5000 -82.1000 180° South 366 421 12,200 -900 Descending Tampa TRACON
10:49AM 28.3833 -82.0833 173° South 366 421 11,200 -540 Descending Tampa TRACON
10:50AM 28.2833 -82.0667 172° South 368 423 11,100 -60 Descending Tampa TRACON
10:51AM 28.1833 -82.0500 172° South 366 421 11,100 -120 Level Tampa TRACON
10:52AM 28.0833 -82.0333 172° South 360 414 10,900 -600 Descending Tampa TRACON
10:53AM 28.0000 -82.0167 170° South 308 354 10,000 -1,140 Descending Tampa TRACON
10:54AM 27.9333 -82.0667 214° Southwest 307 353 8,700 -1,500 Descending Tampa TRACON
10:55AM 27.8667 -82.1333 221° Southwest 304 350 7,000 -1,320 Descending Tampa TRACON
10:56AM 27.8000 -82.2000 222° Southwest 283 326 6,100 -480 Descending Tampa TRACON
10:57AM 27.7500 -82.2500 222° Southwest 282 325 6,100  Level Tampa TRACON
10:58AM 27.6833 -82.3167 222° Southwest 287 330 6,100  Level Tampa TRACON
10:59AM 27.6333 -82.3833 230° Southwest 283 326 6,100 -60 Level Tampa TRACON
11:00AM 27.6167 -82.4667 257° West 273 314 6,000 -900 Descending Tampa TRACON
11:01AM 27.6000 -82.5500 257° West 262 302 4,300 -1,680 Descending Tampa TRACON
11:02AM 27.5667 -82.6167 241° Southwest 244 281 2,700 -1,620 Descending Tampa TRACON